sensor_id;sensor_type;location;lat;lon;timestamp;P1;durP1;ratioP1;P2;durP2;ratioP2
37877;SDS011;23715;53.652;8.516;2023-05-25T00:17:00;40.70;;;37.33;;
37877;SDS011;23715;53.652;8.516;2023-05-25T00:27:42;38.40;;;35.55;;
37877;SDS011;23715;53.652;8.516;2023-05-25T00:32:42;40.88;;;37.95;;
37877;SDS011;23715;53.652;8.516;2023-05-25T00:37:45;42.65;;;39.33;;
37877;SDS011;23715;53.652;8.516;2023-05-25T00:42:47;43.00;;;39.23;;
37877;SDS011;23715;53.652;8.516;2023-05-25T00:47:49;45.43;;;42.15;;
37877;SDS011;23715;53.652;8.516;2023-05-25T00:52:50;45.70;;;42.33;;
37877;SDS011;23715;53.652;8.516;2023-05-25T00:57:50;46.33;;;42.93;;
37877;SDS011;23715;53.652;8.516;2023-05-25T01:02:52;48.28;;;44.77;;
37877;SDS011;23715;53.652;8.516;2023-05-25T01:07:59;47.30;;;43.87;;
37877;SDS011;23715;53.652;8.516;2023-05-25T01:12:59;49.75;;;45.90;;
37877;SDS011;23715;53.652;8.516;2023-05-25T01:18:01;49.48;;;45.55;;
37877;SDS011;23715;53.652;8.516;2023-05-25T01:23:07;46.25;;;42.90;;
37877;SDS011;23715;53.652;8.516;2023-05-25T01:28:20;48.42;;;44.73;;
37877;SDS011;23715;53.652;8.516;2023-05-25T01:33:18;48.20;;;44.48;;
37877;SDS011;23715;53.652;8.516;2023-05-25T01:38:19;46.73;;;42.73;;
37877;SDS011;23715;53.652;8.516;2023-05-25T01:43:19;41.28;;;38.25;;
37877;SDS011;23715;53.652;8.516;2023-05-25T01:48:36;45.90;;;42.15;;
37877;SDS011;23715;53.652;8.516;2023-05-25T01:53:34;41.50;;;38.25;;
37877;SDS011;23715;53.652;8.516;2023-05-25T01:58:42;40.80;;;38.23;;
37877;SDS011;23715;53.652;8.516;2023-05-25T02:03:45;45.17;;;41.85;;
37877;SDS011;23715;53.652;8.516;2023-05-25T02:08:47;44.88;;;40.78;;
37877;SDS011;23715;53.652;8.516;2023-05-25T02:13:49;47.43;;;43.90;;
37877;SDS011;23715;53.652;8.516;2023-05-25T02:18:49;47.85;;;44.45;;
37877;SDS011;23715;53.652;8.516;2023-05-25T02:23:49;52.38;;;48.08;;
37877;SDS011;23715;53.652;8.516;2023-05-25T02:28:51;52.20;;;48.48;;
37877;SDS011;23715;53.652;8.516;2023-05-25T02:33:51;53.92;;;50.35;;
37877;SDS011;23715;53.652;8.516;2023-05-25T02:38:52;53.02;;;49.15;;
37877;SDS011;23715;53.652;8.516;2023-05-25T02:43:52;51.55;;;47.75;;
37877;SDS011;23715;53.652;8.516;2023-05-25T02:48:52;52.53;;;48.43;;
37877;SDS011;23715;53.652;8.516;2023-05-25T02:58:54;52.37;;;48.43;;
37877;SDS011;23715;53.652;8.516;2023-05-25T03:04:04;50.93;;;47.43;;
37877;SDS011;23715;53.652;8.516;2023-05-25T03:09:06;48.75;;;45.25;;
37877;SDS011;23715;53.652;8.516;2023-05-25T03:14:08;49.45;;;46.18;;
37877;SDS011;23715;53.652;8.516;2023-05-25T03:19:11;48.10;;;44.77;;
37877;SDS011;23715;53.652;8.516;2023-05-25T03:24:11;50.28;;;46.75;;
37877;SDS011;23715;53.652;8.516;2023-05-25T03:29:12;49.65;;;46.25;;
37877;SDS011;23715;53.652;8.516;2023-05-25T03:39:12;48.10;;;44.50;;
37877;SDS011;23715;53.652;8.516;2023-05-25T03:44:13;47.90;;;44.45;;
37877;SDS011;23715;53.652;8.516;2023-05-25T03:49:14;48.20;;;45.12;;
37877;SDS011;23715;53.652;8.516;2023-05-25T03:54:14;48.92;;;45.90;;
37877;SDS011;23715;53.652;8.516;2023-05-25T03:59:14;53.68;;;49.93;;
37877;SDS011;23715;53.652;8.516;2023-05-25T04:04:20;47.65;;;44.53;;
37877;SDS011;23715;53.652;8.516;2023-05-25T04:09:21;48.73;;;45.33;;
37877;SDS011;23715;53.652;8.516;2023-05-25T04:14:21;48.73;;;45.40;;
37877;SDS011;23715;53.652;8.516;2023-05-25T04:19:23;48.73;;;45.28;;
37877;SDS011;23715;53.652;8.516;2023-05-25T04:24:23;48.48;;;44.80;;
37877;SDS011;23715;53.652;8.516;2023-05-25T04:29:24;48.38;;;44.60;;
37877;SDS011;23715;53.652;8.516;2023-05-25T04:34:36;49.60;;;45.83;;
37877;SDS011;23715;53.652;8.516;2023-05-25T04:39:34;51.63;;;47.33;;
37877;SDS011;23715;53.652;8.516;2023-05-25T04:44:35;50.58;;;46.25;;
37877;SDS011;23715;53.652;8.516;2023-05-25T04:49:37;51.42;;;47.40;;
37877;SDS011;23715;53.652;8.516;2023-05-25T04:54:39;55.88;;;50.85;;
37877;SDS011;23715;53.652;8.516;2023-05-25T04:59:43;51.60;;;46.90;;
37877;SDS011;23715;53.652;8.516;2023-05-25T05:09:43;49.23;;;44.83;;
37877;SDS011;23715;53.652;8.516;2023-05-25T05:19:44;48.55;;;44.65;;
37877;SDS011;23715;53.652;8.516;2023-05-25T05:24:44;50.83;;;45.43;;
37877;SDS011;23715;53.652;8.516;2023-05-25T05:29:46;50.10;;;45.00;;
37877;SDS011;23715;53.652;8.516;2023-05-25T05:34:47;47.65;;;43.02;;
37877;SDS011;23715;53.652;8.516;2023-05-25T05:39:51;56.02;;;50.52;;
37877;SDS011;23715;53.652;8.516;2023-05-25T05:44:51;52.55;;;47.20;;
37877;SDS011;23715;53.652;8.516;2023-05-25T05:49:54;51.98;;;47.25;;
37877;SDS011;23715;53.652;8.516;2023-05-25T05:54:55;48.83;;;43.70;;
37877;SDS011;23715;53.652;8.516;2023-05-25T05:59:56;55.92;;;47.43;;
37877;SDS011;23715;53.652;8.516;2023-05-25T06:04:56;53.92;;;48.58;;
37877;SDS011;23715;53.652;8.516;2023-05-25T06:09:57;52.45;;;47.03;;
37877;SDS011;23715;53.652;8.516;2023-05-25T06:14:58;45.88;;;41.53;;
37877;SDS011;23715;53.652;8.516;2023-05-25T06:19:59;49.55;;;43.17;;
37877;SDS011;23715;53.652;8.516;2023-05-25T06:25:00;49.73;;;44.67;;
37877;SDS011;23715;53.652;8.516;2023-05-25T06:30:00;51.35;;;45.98;;
37877;SDS011;23715;53.652;8.516;2023-05-25T06:35:01;53.98;;;47.60;;
37877;SDS011;23715;53.652;8.516;2023-05-25T06:40:02;51.28;;;42.03;;
37877;SDS011;23715;53.652;8.516;2023-05-25T06:45:04;56.70;;;46.10;;
37877;SDS011;23715;53.652;8.516;2023-05-25T06:50:06;50.67;;;45.48;;
37877;SDS011;23715;53.652;8.516;2023-05-25T06:55:07;48.68;;;43.75;;
37877;SDS011;23715;53.652;8.516;2023-05-25T07:00:07;56.28;;;47.23;;
37877;SDS011;23715;53.652;8.516;2023-05-25T07:05:12;58.75;;;46.80;;
37877;SDS011;23715;53.652;8.516;2023-05-25T07:10:12;50.25;;;41.73;;
37877;SDS011;23715;53.652;8.516;2023-05-25T07:15:12;50.58;;;42.40;;
37877;SDS011;23715;53.652;8.516;2023-05-25T07:20:13;47.95;;;43.05;;
37877;SDS011;23715;53.652;8.516;2023-05-25T07:25:17;45.08;;;39.75;;
37877;SDS011;23715;53.652;8.516;2023-05-25T07:30:17;52.00;;;47.05;;
37877;SDS011;23715;53.652;8.516;2023-05-25T07:35:18;51.25;;;43.83;;
37877;SDS011;23715;53.652;8.516;2023-05-25T07:40:18;51.13;;;44.15;;
37877;SDS011;23715;53.652;8.516;2023-05-25T07:45:18;49.15;;;41.23;;
37877;SDS011;23715;53.652;8.516;2023-05-25T07:50:19;51.55;;;41.00;;
37877;SDS011;23715;53.652;8.516;2023-05-25T07:55:20;45.67;;;40.28;;
37877;SDS011;23715;53.652;8.516;2023-05-25T08:00:21;52.58;;;45.00;;
37877;SDS011;23715;53.652;8.516;2023-05-25T08:05:21;51.10;;;45.03;;
37877;SDS011;23715;53.652;8.516;2023-05-25T08:10:21;49.55;;;44.27;;
37877;SDS011;23715;53.652;8.516;2023-05-25T08:15:24;44.58;;;38.70;;
37877;SDS011;23715;53.652;8.516;2023-05-25T08:20:26;47.78;;;39.45;;
37877;SDS011;23715;53.652;8.516;2023-05-25T08:25:27;45.35;;;39.92;;
37877;SDS011;23715;53.652;8.516;2023-05-25T08:30:27;55.25;;;44.25;;
37877;SDS011;23715;53.652;8.516;2023-05-25T08:35:28;52.48;;;37.35;;
37877;SDS011;23715;53.652;8.516;2023-05-25T08:40:28;52.00;;;41.73;;
37877;SDS011;23715;53.652;8.516;2023-05-25T08:45:29;41.88;;;37.05;;
37877;SDS011;23715;53.652;8.516;2023-05-25T08:50:29;45.90;;;36.83;;
37877;SDS011;23715;53.652;8.516;2023-05-25T08:55:32;45.17;;;36.95;;
37877;SDS011;23715;53.652;8.516;2023-05-25T09:00:35;46.28;;;41.50;;
37877;SDS011;23715;53.652;8.516;2023-05-25T09:05:39;53.78;;;39.53;;
37877;SDS011;23715;53.652;8.516;2023-05-25T09:10:40;49.90;;;39.23;;
37877;SDS011;23715;53.652;8.516;2023-05-25T09:15:40;49.88;;;44.35;;
37877;SDS011;23715;53.652;8.516;2023-05-25T09:20:41;47.08;;;39.05;;
37877;SDS011;23715;53.652;8.516;2023-05-25T09:25:41;51.37;;;39.20;;
37877;SDS011;23715;53.652;8.516;2023-05-25T09:30:43;53.53;;;42.57;;
37877;SDS011;23715;53.652;8.516;2023-05-25T09:35:44;45.10;;;40.23;;
37877;SDS011;23715;53.652;8.516;2023-05-25T09:40:44;41.70;;;34.33;;
37877;SDS011;23715;53.652;8.516;2023-05-25T09:45:45;48.63;;;38.15;;
37877;SDS011;23715;53.652;8.516;2023-05-25T09:50:45;44.23;;;39.27;;
37877;SDS011;23715;53.652;8.516;2023-05-25T09:55:47;46.20;;;41.37;;
37877;SDS011;23715;53.652;8.516;2023-05-25T10:00:48;48.20;;;42.03;;
37877;SDS011;23715;53.652;8.516;2023-05-25T10:05:50;47.95;;;39.95;;
37877;SDS011;23715;53.652;8.516;2023-05-25T10:10:52;61.80;;;45.52;;
37877;SDS011;23715;53.652;8.516;2023-05-25T10:15:52;49.42;;;38.10;;
37877;SDS011;23715;53.652;8.516;2023-05-25T10:21:01;49.38;;;34.80;;
37877;SDS011;23715;53.652;8.516;2023-05-25T10:26:02;43.85;;;36.85;;
37877;SDS011;23715;53.652;8.516;2023-05-25T10:31:04;44.40;;;38.60;;
37877;SDS011;23715;53.652;8.516;2023-05-25T10:36:15;43.78;;;34.70;;
37877;SDS011;23715;53.652;8.516;2023-05-25T10:41:18;47.75;;;36.50;;
37877;SDS011;23715;53.652;8.516;2023-05-25T10:46:19;42.48;;;35.05;;
37877;SDS011;23715;53.652;8.516;2023-05-25T10:51:20;38.88;;;34.00;;
37877;SDS011;23715;53.652;8.516;2023-05-25T10:56:20;43.60;;;32.38;;
37877;SDS011;23715;53.652;8.516;2023-05-25T11:01:21;46.65;;;30.00;;
37877;SDS011;23715;53.652;8.516;2023-05-25T11:17:02;48.85;;;29.48;;
37877;SDS011;23715;53.652;8.516;2023-05-25T11:27:23;40.52;;;24.30;;
37877;SDS011;23715;53.652;8.516;2023-05-25T11:32:25;45.90;;;27.87;;
37877;SDS011;23715;53.652;8.516;2023-05-25T11:37:26;39.03;;;25.48;;
37877;SDS011;23715;53.652;8.516;2023-05-25T11:42:28;39.23;;;23.62;;
37877;SDS011;23715;53.652;8.516;2023-05-25T11:47:30;31.27;;;23.32;;
37877;SDS011;23715;53.652;8.516;2023-05-25T11:52:33;42.67;;;24.80;;
37877;SDS011;23715;53.652;8.516;2023-05-25T11:57:33;41.77;;;25.72;;
37877;SDS011;23715;53.652;8.516;2023-05-25T12:02:37;45.67;;;23.85;;
37877;SDS011;23715;53.652;8.516;2023-05-25T12:07:42;37.03;;;22.15;;
37877;SDS011;23715;53.652;8.516;2023-05-25T12:12:50;43.03;;;23.13;;
37877;SDS011;23715;53.652;8.516;2023-05-25T12:17:49;38.58;;;23.00;;
37877;SDS011;23715;53.652;8.516;2023-05-25T12:22:54;41.83;;;20.37;;
37877;SDS011;23715;53.652;8.516;2023-05-25T12:28:11;34.70;;;20.43;;
37877;SDS011;23715;53.652;8.516;2023-05-25T12:33:13;32.45;;;20.65;;
37877;SDS011;23715;53.652;8.516;2023-05-25T12:38:15;35.95;;;20.80;;
37877;SDS011;23715;53.652;8.516;2023-05-25T12:43:16;33.75;;;20.45;;
37877;SDS011;23715;53.652;8.516;2023-05-25T12:48:24;38.80;;;21.35;;
37877;SDS011;23715;53.652;8.516;2023-05-25T12:53:20;38.70;;;21.10;;
37877;SDS011;23715;53.652;8.516;2023-05-25T12:58:27;52.75;;;19.62;;
37877;SDS011;23715;53.652;8.516;2023-05-25T13:03:27;41.92;;;20.48;;
37877;SDS011;23715;53.652;8.516;2023-05-25T13:08:28;33.35;;;20.30;;
37877;SDS011;23715;53.652;8.516;2023-05-25T13:13:28;31.52;;;20.40;;
37877;SDS011;23715;53.652;8.516;2023-05-25T13:18:29;42.75;;;19.77;;
37877;SDS011;23715;53.652;8.516;2023-05-25T13:23:29;35.00;;;20.25;;
37877;SDS011;23715;53.652;8.516;2023-05-25T13:28:30;38.63;;;20.45;;
37877;SDS011;23715;53.652;8.516;2023-05-25T13:33:30;46.00;;;20.12;;
37877;SDS011;23715;53.652;8.516;2023-05-25T13:38:31;46.48;;;21.70;;
37877;SDS011;23715;53.652;8.516;2023-05-25T13:43:36;41.37;;;22.02;;
37877;SDS011;23715;53.652;8.516;2023-05-25T13:48:36;34.15;;;23.00;;
37877;SDS011;23715;53.652;8.516;2023-05-25T13:53:37;36.68;;;18.23;;
37877;SDS011;23715;53.652;8.516;2023-05-25T13:58:37;43.53;;;19.50;;
37877;SDS011;23715;53.652;8.516;2023-05-25T14:03:39;36.03;;;18.87;;
37877;SDS011;23715;53.652;8.516;2023-05-25T14:08:39;41.48;;;20.72;;
37877;SDS011;23715;53.652;8.516;2023-05-25T14:13:39;38.88;;;20.10;;
37877;SDS011;23715;53.652;8.516;2023-05-25T14:18:40;35.45;;;20.82;;
37877;SDS011;23715;53.652;8.516;2023-05-25T14:23:41;35.25;;;17.87;;
37877;SDS011;23715;53.652;8.516;2023-05-25T14:28:41;41.75;;;19.10;;
37877;SDS011;23715;53.652;8.516;2023-05-25T14:33:41;32.33;;;17.90;;
37877;SDS011;23715;53.652;8.516;2023-05-25T14:38:42;28.83;;;19.12;;
37877;SDS011;23715;53.652;8.516;2023-05-25T14:43:42;38.05;;;19.85;;
37877;SDS011;23715;53.652;8.516;2023-05-25T14:48:42;36.58;;;17.85;;
37877;SDS011;23715;53.652;8.516;2023-05-25T14:53:43;38.80;;;19.30;;
37877;SDS011;23715;53.652;8.516;2023-05-25T14:58:43;27.02;;;17.77;;
37877;SDS011;23715;53.652;8.516;2023-05-25T15:03:43;34.15;;;17.00;;
37877;SDS011;23715;53.652;8.516;2023-05-25T15:08:44;39.93;;;18.10;;
37877;SDS011;23715;53.652;8.516;2023-05-25T15:13:44;34.48;;;18.62;;
37877;SDS011;23715;53.652;8.516;2023-05-25T15:18:44;34.10;;;17.42;;
37877;SDS011;23715;53.652;8.516;2023-05-25T15:23:44;37.33;;;20.02;;
37877;SDS011;23715;53.652;8.516;2023-05-25T15:28:46;30.43;;;17.50;;
37877;SDS011;23715;53.652;8.516;2023-05-25T15:33:47;37.83;;;18.13;;
37877;SDS011;23715;53.652;8.516;2023-05-25T15:38:47;35.05;;;18.48;;
37877;SDS011;23715;53.652;8.516;2023-05-25T15:43:51;31.82;;;16.77;;
37877;SDS011;23715;53.652;8.516;2023-05-25T15:48:54;37.58;;;18.27;;
37877;SDS011;23715;53.652;8.516;2023-05-25T15:53:54;33.38;;;17.75;;
37877;SDS011;23715;53.652;8.516;2023-05-25T15:58:55;29.72;;;16.37;;
37877;SDS011;23715;53.652;8.516;2023-05-25T16:03:55;32.53;;;18.40;;
37877;SDS011;23715;53.652;8.516;2023-05-25T16:08:56;36.30;;;16.63;;
37877;SDS011;23715;53.652;8.516;2023-05-25T16:13:56;35.30;;;17.27;;
37877;SDS011;23715;53.652;8.516;2023-05-25T16:18:56;33.20;;;17.20;;
37877;SDS011;23715;53.652;8.516;2023-05-25T16:23:57;31.62;;;16.90;;
37877;SDS011;23715;53.652;8.516;2023-05-25T16:28:57;34.85;;;15.18;;
37877;SDS011;23715;53.652;8.516;2023-05-25T16:33:57;33.35;;;14.60;;
37877;SDS011;23715;53.652;8.516;2023-05-25T16:39:00;30.73;;;15.80;;
37877;SDS011;23715;53.652;8.516;2023-05-25T16:44:00;33.15;;;16.37;;
37877;SDS011;23715;53.652;8.516;2023-05-25T16:54:00;33.90;;;15.93;;
37877;SDS011;23715;53.652;8.516;2023-05-25T16:59:00;35.63;;;17.00;;
37877;SDS011;23715;53.652;8.516;2023-05-25T17:04:01;32.70;;;17.30;;
37877;SDS011;23715;53.652;8.516;2023-05-25T17:09:01;38.42;;;17.23;;
37877;SDS011;23715;53.652;8.516;2023-05-25T17:19:01;36.15;;;16.30;;
37877;SDS011;23715;53.652;8.516;2023-05-25T17:24:01;38.35;;;16.00;;
37877;SDS011;23715;53.652;8.516;2023-05-25T17:29:01;40.30;;;16.90;;
37877;SDS011;23715;53.652;8.516;2023-05-25T17:34:03;36.55;;;16.00;;
37877;SDS011;23715;53.652;8.516;2023-05-25T17:39:03;36.63;;;17.15;;
37877;SDS011;23715;53.652;8.516;2023-05-25T17:44:04;35.90;;;17.23;;
37877;SDS011;23715;53.652;8.516;2023-05-25T17:49:04;37.00;;;17.40;;
37877;SDS011;23715;53.652;8.516;2023-05-25T17:54:04;34.50;;;16.87;;
37877;SDS011;23715;53.652;8.516;2023-05-25T17:59:05;29.07;;;16.70;;
37877;SDS011;23715;53.652;8.516;2023-05-25T18:04:06;34.67;;;16.73;;
37877;SDS011;23715;53.652;8.516;2023-05-25T18:09:07;31.37;;;16.27;;
37877;SDS011;23715;53.652;8.516;2023-05-25T18:19:06;31.13;;;14.93;;
37877;SDS011;23715;53.652;8.516;2023-05-25T18:24:07;34.43;;;14.85;;
37877;SDS011;23715;53.652;8.516;2023-05-25T18:29:07;31.20;;;16.15;;
37877;SDS011;23715;53.652;8.516;2023-05-25T18:34:08;30.37;;;14.07;;
37877;SDS011;23715;53.652;8.516;2023-05-25T18:39:08;31.50;;;15.20;;
37877;SDS011;23715;53.652;8.516;2023-05-25T18:49:08;32.97;;;14.97;;
37877;SDS011;23715;53.652;8.516;2023-05-25T18:54:08;29.18;;;14.28;;
37877;SDS011;23715;53.652;8.516;2023-05-25T18:59:08;24.80;;;14.50;;
37877;SDS011;23715;53.652;8.516;2023-05-25T19:04:09;37.98;;;15.98;;
37877;SDS011;23715;53.652;8.516;2023-05-25T19:09:09;31.02;;;15.00;;
37877;SDS011;23715;53.652;8.516;2023-05-25T19:14:09;28.20;;;15.78;;
37877;SDS011;23715;53.652;8.516;2023-05-25T19:19:09;34.90;;;16.10;;
37877;SDS011;23715;53.652;8.516;2023-05-25T19:24:10;32.98;;;16.57;;
37877;SDS011;23715;53.652;8.516;2023-05-25T19:34:30;37.77;;;16.03;;
37877;SDS011;23715;53.652;8.516;2023-05-25T19:39:31;29.02;;;15.23;;
37877;SDS011;23715;53.652;8.516;2023-05-25T19:44:31;41.88;;;14.83;;
37877;SDS011;23715;53.652;8.516;2023-05-25T19:49:32;44.73;;;15.98;;
37877;SDS011;23715;53.652;8.516;2023-05-25T19:54:32;38.28;;;15.80;;
37877;SDS011;23715;53.652;8.516;2023-05-25T20:09:33;34.45;;;14.63;;
37877;SDS011;23715;53.652;8.516;2023-05-25T20:14:35;36.93;;;16.35;;
37877;SDS011;23715;53.652;8.516;2023-05-25T20:19:36;38.93;;;16.90;;
37877;SDS011;23715;53.652;8.516;2023-05-25T20:24:37;31.52;;;16.05;;
37877;SDS011;23715;53.652;8.516;2023-05-25T20:29:37;42.00;;;18.02;;
37877;SDS011;23715;53.652;8.516;2023-05-25T20:34:38;35.92;;;16.90;;
37877;SDS011;23715;53.652;8.516;2023-05-25T20:39:38;38.02;;;17.73;;
37877;SDS011;23715;53.652;8.516;2023-05-25T20:49:38;39.42;;;16.85;;
37877;SDS011;23715;53.652;8.516;2023-05-25T20:54:38;36.95;;;16.17;;
37877;SDS011;23715;53.652;8.516;2023-05-25T20:59:40;35.35;;;17.07;;
37877;SDS011;23715;53.652;8.516;2023-05-25T21:04:40;37.10;;;18.17;;
37877;SDS011;23715;53.652;8.516;2023-05-25T21:09:41;37.30;;;20.68;;
37877;SDS011;23715;53.652;8.516;2023-05-25T21:14:41;38.38;;;18.80;;
37877;SDS011;23715;53.652;8.516;2023-05-25T21:19:41;36.58;;;19.70;;
37877;SDS011;23715;53.652;8.516;2023-05-25T21:24:42;43.70;;;21.40;;
37877;SDS011;23715;53.652;8.516;2023-05-25T21:29:42;33.20;;;18.67;;
37877;SDS011;23715;53.652;8.516;2023-05-25T21:34:43;34.10;;;17.77;;
37877;SDS011;23715;53.652;8.516;2023-05-25T21:39:43;37.85;;;18.60;;
37877;SDS011;23715;53.652;8.516;2023-05-25T21:44:43;31.60;;;18.77;;
37877;SDS011;23715;53.652;8.516;2023-05-25T21:49:44;35.83;;;19.82;;
37877;SDS011;23715;53.652;8.516;2023-05-25T21:54:46;34.10;;;18.12;;
37877;SDS011;23715;53.652;8.516;2023-05-25T21:59:46;35.70;;;15.53;;
37877;SDS011;23715;53.652;8.516;2023-05-25T22:04:46;36.80;;;16.73;;
37877;SDS011;23715;53.652;8.516;2023-05-25T22:09:46;37.58;;;14.87;;
37877;SDS011;23715;53.652;8.516;2023-05-25T22:14:47;39.13;;;16.35;;
37877;SDS011;23715;53.652;8.516;2023-05-25T22:19:47;36.70;;;17.67;;
37877;SDS011;23715;53.652;8.516;2023-05-25T22:24:48;31.03;;;17.00;;
37877;SDS011;23715;53.652;8.516;2023-05-25T22:29:48;33.70;;;17.35;;
37877;SDS011;23715;53.652;8.516;2023-05-25T22:34:51;32.58;;;18.90;;
37877;SDS011;23715;53.652;8.516;2023-05-25T22:39:52;42.98;;;18.90;;
37877;SDS011;23715;53.652;8.516;2023-05-25T22:44:52;35.83;;;19.02;;
37877;SDS011;23715;53.652;8.516;2023-05-25T22:49:52;37.88;;;18.77;;
37877;SDS011;23715;53.652;8.516;2023-05-25T22:54:53;40.57;;;19.03;;
37877;SDS011;23715;53.652;8.516;2023-05-25T22:59:53;37.28;;;16.77;;
37877;SDS011;23715;53.652;8.516;2023-05-25T23:04:53;36.08;;;17.52;;
37877;SDS011;23715;53.652;8.516;2023-05-25T23:09:54;32.10;;;17.42;;
37877;SDS011;23715;53.652;8.516;2023-05-25T23:15:00;30.97;;;16.55;;
37877;SDS011;23715;53.652;8.516;2023-05-25T23:19:57;33.13;;;16.12;;
37877;SDS011;23715;53.652;8.516;2023-05-25T23:24:59;32.35;;;15.50;;
37877;SDS011;23715;53.652;8.516;2023-05-25T23:29:59;29.48;;;17.12;;
37877;SDS011;23715;53.652;8.516;2023-05-25T23:35:00;31.82;;;16.17;;
37877;SDS011;23715;53.652;8.516;2023-05-25T23:40:01;31.07;;;16.82;;
37877;SDS011;23715;53.652;8.516;2023-05-25T23:45:02;35.40;;;17.95;;
37877;SDS011;23715;53.652;8.516;2023-05-25T23:50:03;32.00;;;18.98;;
